createdAt,value
2018-12-16T00:01:32.351Z,12.83
2018-12-16T00:04:16.635Z,13.07
2018-12-16T00:07:00.887Z,12.73
2018-12-16T00:09:34.807Z,17.27
2018-12-16T00:12:12.063Z,13.40
2018-12-16T00:14:57.612Z,13.00
2018-12-16T00:17:33.415Z,16.57
2018-12-16T00:20:07.760Z,13.27
2018-12-16T00:22:49.595Z,16.35
2018-12-16T00:25:26.797Z,14.23
2018-12-16T00:28:12.977Z,13.27
2018-12-16T00:30:45.771Z,11.67
2018-12-16T00:33:18.917Z,12.37
2018-12-16T00:35:58.532Z,15.70
2018-12-16T00:38:33.955Z,12.23
2018-12-16T00:41:09.995Z,10.17
2018-12-16T00:43:46.419Z,11.57
2018-12-16T00:46:22.666Z,13.50
2018-12-16T00:48:56.341Z,12.73
2018-12-16T00:51:38.795Z,12.33
2018-12-16T00:54:15.107Z,11.10
2018-12-16T00:56:59.208Z,10.80
2018-12-16T00:59:33.008Z,11.57
2018-12-16T01:02:19.702Z,12.37
2018-12-16T01:04:55.611Z,11.57
2018-12-16T01:07:31.699Z,11.13
2018-12-16T01:10:08.268Z,10.57
2018-12-16T01:12:41.689Z,9.57
2018-12-16T01:15:17.248Z,12.97
2018-12-16T01:17:53.566Z,11.77
2018-12-16T01:23:33.651Z,12.80
2018-12-16T01:26:07.570Z,10.23
2018-12-16T01:28:43.236Z,9.80
2018-12-16T01:31:25.601Z,10.23
2018-12-16T01:34:05.643Z,11.03
2018-12-16T01:36:49.213Z,10.77
2018-12-16T01:39:25.076Z,10.87
2018-12-16T01:42:01.284Z,11.57
2018-12-16T01:44:38.307Z,10.53
2018-12-16T01:47:14.603Z,11.20
2018-12-16T01:49:56.335Z,11.43
2018-12-16T01:52:49.938Z,11.70
2018-12-16T01:55:22.056Z,11.73
2018-12-16T01:58:10.457Z,14.00
2018-12-16T02:00:46.160Z,11.57
2018-12-16T02:03:23.231Z,11.20
2018-12-16T02:05:59.451Z,11.57
2018-12-16T02:08:35.813Z,11.40
2018-12-16T02:11:12.080Z,11.97
2018-12-16T02:13:57.467Z,12.90
2018-12-16T02:16:33.551Z,11.47
2018-12-16T02:19:15.562Z,11.77
2018-12-16T02:21:51.849Z,11.20
2018-12-16T02:24:25.630Z,14.60
2018-12-16T02:27:07.515Z,15.15
2018-12-16T02:29:41.610Z,12.83
2018-12-16T02:32:21.277Z,11.67
2018-12-16T02:34:57.545Z,12.37
2018-12-16T02:37:33.500Z,12.00
2018-12-16T02:40:09.660Z,12.20
2018-12-16T02:42:45.883Z,12.00
2018-12-16T02:45:21.867Z,10.33
2018-12-16T02:47:59.051Z,11.67
2018-12-16T02:50:33.048Z,13.10
2018-12-16T02:53:14.876Z,12.07
2018-12-16T02:56:02.922Z,12.63
2018-12-16T02:58:44.791Z,12.23
2018-12-16T03:01:16.431Z,10.70
2018-12-16T03:03:51.783Z,11.20
2018-12-16T03:06:28.029Z,12.77
2018-12-16T03:09:00.080Z,12.70
2018-12-16T03:11:33.496Z,11.90
2018-12-16T03:14:04.891Z,13.48
2018-12-16T03:16:44.342Z,12.73
2018-12-16T03:19:25.947Z,12.00
2018-12-16T03:22:01.910Z,9.57
2018-12-16T03:24:38.088Z,9.90
2018-12-16T03:27:16.413Z,13.57
2018-12-16T03:29:48.663Z,13.10
2018-12-16T03:32:23.157Z,15.23
2018-12-16T03:35:07.564Z,12.87
2018-12-16T03:37:43.531Z,12.13
2018-12-16T03:40:17.451Z,13.03
2018-12-16T03:43:01.008Z,11.20
2018-12-16T03:45:41.035Z,12.47
2018-12-16T03:48:14.672Z,12.67
2018-12-16T03:50:57.588Z,15.08
2018-12-16T03:53:33.696Z,13.20
2018-12-16T03:56:09.913Z,13.57
2018-12-16T03:58:51.555Z,11.23
2018-12-16T04:01:27.026Z,12.93
2018-12-16T04:04:01.222Z,12.43
2018-12-16T04:06:35.045Z,15.97
2018-12-16T04:09:08.905Z,13.53
2018-12-16T04:11:44.607Z,12.63
2018-12-16T04:14:24.583Z,12.37
2018-12-16T04:17:07.804Z,12.43
2018-12-16T04:19:50.255Z,11.87
2018-12-16T04:22:34.342Z,11.87
2018-12-16T04:25:06.552Z,12.27
2018-12-16T04:27:40.143Z,16.10
2018-12-16T04:30:13.864Z,12.53
2018-12-16T04:32:47.245Z,15.93
2018-12-16T04:35:22.956Z,14.60
2018-12-16T04:37:58.563Z,14.07
2018-12-16T04:40:40.715Z,13.80
2018-12-16T04:43:16.975Z,12.53
2018-12-16T04:45:57.120Z,13.50
2018-12-16T04:48:32.948Z,11.20
2018-12-16T04:51:06.352Z,12.93
2018-12-16T04:53:45.777Z,13.47
2018-12-16T04:56:28.159Z,13.73
2018-12-16T04:59:01.553Z,11.53
2018-12-16T05:01:37.212Z,12.30
2018-12-16T05:04:15.577Z,15.37
2018-12-16T05:06:51.797Z,14.83
2018-12-16T05:09:25.703Z,12.23
2018-12-16T05:12:09.580Z,12.20
2018-12-16T05:14:45.436Z,14.90
2018-12-16T05:17:27.615Z,14.07
2018-12-16T05:20:01.332Z,13.20
2018-12-16T05:22:37.619Z,12.20
2018-12-16T05:25:13.376Z,12.43
2018-12-16T05:27:49.547Z,12.67
2018-12-16T05:30:25.568Z,12.93
2018-12-16T05:32:59.589Z,13.60
2018-12-16T05:35:41.468Z,12.47
2018-12-16T05:38:17.271Z,13.13
2018-12-16T05:41:05.714Z,13.97
2018-12-16T05:43:53.803Z,13.53
2018-12-16T05:46:29.652Z,15.03
2018-12-16T05:49:05.704Z,14.97
2018-12-16T05:51:48.192Z,16.55
2018-12-16T05:54:27.931Z,14.80
2018-12-16T05:57:11.512Z,15.50
2018-12-16T05:59:43.108Z,13.37
2018-12-16T06:02:24.520Z,13.33
2018-12-16T06:04:56.682Z,12.63
2018-12-16T06:07:32.755Z,13.77
2018-12-16T06:10:15.167Z,13.80
2018-12-16T06:13:03.275Z,12.87
2018-12-16T06:15:39.134Z,13.33
2018-12-16T06:18:14.876Z,12.57
2018-12-16T06:20:50.971Z,13.93
2018-12-16T06:23:30.987Z,15.87
2018-12-16T06:26:07.357Z,13.30
2018-12-16T06:28:40.442Z,13.57
2018-12-16T06:31:16.393Z,12.63
2018-12-16T06:33:52.760Z,16.60
2018-12-16T06:36:28.889Z,12.93
2018-12-16T06:39:02.583Z,14.60
2018-12-16T06:41:39.380Z,13.83
2018-12-16T06:44:19.261Z,15.20
2018-12-16T06:46:55.280Z,15.50
2018-12-16T06:49:37.720Z,14.40
2018-12-16T06:52:13.792Z,14.80
2018-12-16T06:54:50.024Z,14.67
2018-12-16T06:57:26.207Z,15.40
2018-12-16T06:59:59.935Z,13.13
2018-12-16T07:02:35.608Z,13.60
2018-12-16T07:05:23.872Z,13.87
2018-12-16T07:08:01.688Z,19.57
2018-12-16T07:10:49.571Z,20.03
2018-12-16T07:13:31.603Z,14.60
2018-12-16T07:16:07.690Z,16.23
2018-12-16T07:18:41.783Z,15.87
2018-12-16T07:21:15.711Z,15.47
2018-12-16T07:23:51.312Z,16.60
2018-12-16T07:26:39.683Z,15.90
2018-12-16T07:29:21.429Z,14.27
2018-12-16T07:31:57.511Z,15.27
2018-12-16T07:34:33.811Z,14.60
2018-12-16T07:37:09.764Z,13.97
2018-12-16T07:39:47.995Z,14.87
2018-12-16T07:42:26.376Z,15.17
2018-12-16T07:45:00.059Z,15.00
2018-12-16T07:47:35.591Z,14.57
2018-12-16T07:50:11.788Z,13.97
2018-12-16T07:52:58.146Z,14.60
2018-12-16T07:55:34.065Z,15.70
2018-12-16T07:58:09.957Z,17.07
2018-12-16T08:00:52.463Z,14.10
2018-12-16T08:03:35.153Z,17.97
2018-12-16T08:06:10.854Z,14.43
2018-12-16T08:08:44.747Z,15.50
2018-12-16T08:11:24.248Z,14.60
2018-12-16T08:13:59.668Z,16.00
2018-12-16T08:16:35.716Z,15.27
2018-12-16T08:19:18.319Z,16.17
2018-12-16T08:21:53.684Z,17.97
2018-12-16T08:24:29.996Z,18.47
2018-12-16T08:27:07.020Z,18.87
2018-12-16T08:29:53.092Z,18.17
2018-12-16T08:32:35.104Z,15.90
2018-12-16T08:35:14.821Z,17.50
2018-12-16T08:37:59.252Z,15.03
2018-12-16T08:40:36.120Z,20.00
2018-12-16T08:43:12.400Z,17.60
2018-12-16T08:45:54.916Z,18.30
2018-12-16T08:48:38.708Z,19.10
2018-12-16T08:53:53.559Z,17.77
2018-12-16T08:56:29.880Z,16.00
2018-12-16T08:59:03.849Z,16.50
2018-12-16T09:01:45.540Z,14.57
2018-12-16T09:04:17.515Z,15.30
2018-12-16T09:06:57.244Z,18.57
2018-12-16T09:09:35.739Z,17.30
2018-12-16T09:12:15.479Z,15.43
2018-12-16T09:14:51.467Z,16.00
2018-12-16T09:17:27.704Z,16.50
2018-12-16T09:20:01.617Z,17.37
2018-12-16T09:22:35.891Z,19.77
2018-12-16T09:25:09.931Z,16.50
2018-12-16T09:27:54.615Z,17.20
2018-12-16T09:30:36.436Z,19.27
2018-12-16T09:33:16.155Z,19.23
2018-12-16T09:35:52.252Z,17.83
2018-12-16T09:38:26.190Z,16.97
2018-12-16T09:41:02.620Z,20.50
2018-12-16T09:43:38.460Z,17.50
2018-12-16T09:46:16.612Z,18.40
2018-12-16T09:48:48.520Z,21.03
2018-12-16T09:51:24.093Z,19.07
2018-12-16T09:56:33.266Z,15.30
2018-12-16T09:59:05.717Z,18.40
2018-12-16T10:01:45.857Z,20.77
2018-12-16T10:04:28.203Z,20.60
2018-12-16T10:07:04.224Z,21.37
2018-12-16T10:09:40.484Z,19.77
2018-12-16T10:12:16.613Z,22.13
2018-12-16T10:15:04.964Z,20.00
2018-12-16T10:17:40.653Z,20.93
2018-12-16T10:20:16.004Z,21.90
2018-12-16T10:22:50.068Z,19.30
2018-12-16T10:25:25.506Z,20.67
2018-12-16T10:28:05.342Z,18.37
2018-12-16T10:30:53.485Z,20.03
2018-12-16T10:33:25.040Z,17.63
2018-12-16T10:35:56.527Z,18.37
2018-12-16T10:38:36.083Z,20.20
2018-12-16T10:41:15.460Z,18.80
2018-12-16T10:43:55.423Z,26.57
2018-12-16T10:46:35.847Z,22.80
2018-12-16T10:49:09.249Z,23.47
2018-12-16T10:51:44.832Z,20.03
2018-12-16T10:54:20.942Z,22.50
2018-12-16T10:56:56.761Z,23.40
2018-12-16T10:59:39.076Z,28.00
2018-12-16T11:02:12.512Z,49.30
2018-12-16T11:04:47.980Z,27.37
2018-12-16T11:07:32.384Z,18.33
2018-12-16T11:10:06.283Z,18.03
2018-12-16T11:12:46.788Z,28.30
2018-12-16T11:15:22.428Z,37.07
2018-12-16T11:17:58.279Z,20.87
2018-12-16T11:20:34.520Z,34.80
2018-12-16T11:23:12.701Z,30.80
2018-12-16T11:25:55.081Z,23.97
2018-12-16T11:28:30.733Z,23.60
2018-12-16T11:31:09.127Z,33.53
2018-12-16T11:33:45.173Z,29.67
2018-12-16T11:36:23.394Z,23.87
2018-12-16T11:38:57.121Z,23.67
2018-12-16T11:41:40.826Z,21.20
2018-12-16T11:44:16.975Z,20.37
2018-12-16T11:46:53.075Z,21.40
2018-12-16T11:49:31.286Z,25.60
2018-12-16T11:52:11.423Z,21.40
2018-12-16T11:54:47.630Z,23.20
2018-12-16T11:57:32.154Z,21.67
2018-12-16T12:00:06.449Z,20.60
2018-12-16T12:02:48.173Z,18.27
2018-12-16T12:05:29.802Z,21.57
2018-12-16T12:08:15.601Z,18.53
2018-12-16T12:10:51.271Z,20.00
2018-12-16T12:13:27.344Z,19.03
2018-12-16T12:16:04.601Z,18.40
2018-12-16T12:18:40.576Z,20.70
2018-12-16T12:21:22.840Z,22.80
2018-12-16T12:24:04.988Z,19.77
2018-12-16T12:26:40.824Z,20.03
2018-12-16T12:29:16.657Z,21.73
2018-12-16T12:31:54.274Z,20.43
2018-12-16T12:34:28.242Z,21.70
2018-12-16T12:37:09.858Z,22.60
2018-12-16T12:39:45.603Z,22.47
2018-12-16T12:42:22.372Z,17.20
2018-12-16T12:44:59.710Z,19.37
2018-12-16T12:47:31.781Z,21.83
2018-12-16T12:50:11.412Z,19.37
2018-12-16T12:56:00.662Z,22.23
2018-12-16T12:58:33.731Z,19.07
2018-12-16T13:06:27.483Z,22.10
2018-12-16T13:09:01.177Z,21.20
2018-12-16T13:11:36.789Z,20.47
2018-12-16T13:14:18.989Z,22.90
2018-12-16T13:17:06.227Z,21.17
2018-12-16T13:19:42.117Z,21.53
2018-12-16T13:22:18.489Z,22.60
2018-12-16T13:25:06.531Z,19.60
2018-12-16T13:27:42.223Z,19.33
2018-12-16T13:30:18.851Z,20.80
2018-12-16T13:32:53.149Z,22.40
2018-12-16T13:35:26.560Z,22.70
2018-12-16T13:38:06.012Z,27.47
2018-12-16T13:40:47.579Z,30.63
2018-12-16T13:43:27.381Z,27.70
2018-12-16T13:46:10.879Z,21.40
2018-12-16T13:48:44.187Z,22.00
2018-12-16T13:51:33.089Z,22.00
2018-12-16T13:54:13.026Z,22.43
2018-12-16T13:56:44.916Z,23.87
2018-12-16T13:59:16.263Z,22.47
2018-12-16T14:01:52.265Z,21.67
2018-12-16T14:04:24.100Z,22.70
2018-12-16T14:06:59.489Z,21.83
2018-12-16T14:09:31.475Z,21.20
2018-12-16T14:12:07.232Z,22.77
2018-12-16T14:14:47.616Z,20.37
2018-12-16T14:17:31.435Z,21.27
2018-12-16T14:20:05.760Z,21.83
2018-12-16T14:22:45.335Z,23.17
2018-12-16T14:25:21.303Z,22.80
2018-12-16T14:28:08.034Z,23.23
2018-12-16T14:30:45.453Z,20.97
2018-12-16T14:33:23.495Z,27.40
2018-12-16T14:35:55.583Z,24.80
2018-12-16T14:38:32.208Z,23.13
2018-12-16T14:41:07.560Z,23.83
2018-12-16T14:43:39.185Z,22.47
2018-12-16T14:46:14.623Z,23.60
2018-12-16T14:48:50.952Z,21.77
2018-12-16T14:51:26.961Z,24.40
2018-12-16T14:54:02.972Z,26.23
2018-12-16T14:56:44.366Z,26.80
2018-12-16T14:59:20.141Z,23.87
2018-12-16T15:01:56.095Z,24.50
2018-12-16T15:04:32.185Z,24.00
2018-12-16T15:07:08.331Z,22.57
2018-12-16T15:09:42.227Z,22.40
2018-12-16T15:12:21.770Z,25.57
2018-12-16T15:14:53.284Z,26.67
2018-12-16T15:17:34.985Z,24.27
2018-12-16T15:20:12.379Z,23.00
2018-12-16T15:22:45.891Z,24.20
2018-12-16T15:25:22.067Z,26.90
2018-12-16T15:27:59.403Z,27.30
2018-12-16T15:30:37.071Z,24.43
2018-12-16T15:33:11.812Z,24.40
2018-12-16T15:35:51.294Z,24.30
2018-12-16T15:38:27.613Z,25.77
2018-12-16T15:41:05.476Z,22.90
2018-12-16T15:43:41.061Z,28.67
2018-12-16T15:46:28.654Z,28.00
2018-12-16T15:49:16.739Z,24.67
2018-12-16T15:52:04.486Z,25.00
2018-12-16T15:54:46.451Z,22.77
2018-12-16T15:57:28.216Z,22.73
2018-12-16T16:00:01.597Z,21.03
2018-12-16T16:05:47.335Z,25.73
2018-12-16T16:08:21.157Z,28.83
2018-12-16T16:11:08.703Z,24.97
2018-12-16T16:13:56.857Z,26.20
2018-12-16T16:16:36.842Z,24.87
2018-12-16T16:19:12.780Z,24.40
2018-12-16T16:21:49.943Z,26.87
2018-12-16T16:24:25.307Z,28.70
2018-12-16T16:27:05.097Z,30.10
2018-12-16T16:29:39.101Z,27.53
2018-12-16T16:32:18.770Z,25.03
2018-12-16T16:34:55.372Z,23.83
2018-12-16T16:37:32.669Z,23.07
2018-12-16T16:40:12.755Z,26.30
2018-12-16T16:42:49.043Z,25.27
2018-12-16T16:45:27.425Z,24.70
2018-12-16T16:48:03.713Z,23.53
2018-12-16T16:50:39.912Z,25.30
2018-12-16T16:53:15.867Z,23.27
2018-12-16T16:55:58.335Z,20.97
2018-12-16T16:58:32.040Z,21.57
2018-12-16T17:01:07.877Z,23.70
2018-12-16T17:03:43.995Z,22.50
2018-12-16T17:06:20.068Z,26.33
2018-12-16T17:08:56.258Z,22.53
2018-12-16T17:11:32.450Z,21.97
2018-12-16T17:14:12.612Z,26.30
2018-12-16T17:17:01.658Z,23.90
2018-12-16T17:19:35.379Z,24.20
2018-12-16T17:22:18.111Z,25.77
2018-12-16T17:24:57.685Z,25.87
2018-12-16T17:27:44.254Z,37.90
2018-12-16T17:30:20.390Z,33.50
2018-12-16T17:32:58.488Z,31.53
2018-12-16T17:35:34.940Z,26.03
2018-12-16T17:38:12.869Z,25.40
2018-12-16T17:40:48.881Z,24.07
2018-12-16T17:43:22.911Z,24.43
2018-12-16T17:46:02.408Z,25.40
2018-12-16T17:48:44.736Z,25.17
2018-12-16T17:51:20.685Z,49.43
2018-12-16T17:54:03.542Z,41.00
2018-12-16T17:56:37.227Z,36.57
2018-12-16T17:59:17.702Z,30.60
2018-12-16T18:01:51.940Z,26.93
2018-12-16T18:04:31.692Z,25.07
2018-12-16T18:07:03.679Z,21.57
2018-12-16T18:09:40.760Z,29.73
2018-12-16T18:12:16.111Z,34.63
2018-12-16T18:14:52.164Z,25.27
2018-12-16T18:17:30.504Z,22.63
2018-12-16T18:23:04.959Z,34.27
2018-12-16T18:25:46.825Z,36.57
2018-12-16T18:28:23.286Z,35.50
2018-12-16T18:31:02.967Z,30.23
2018-12-16T18:33:39.034Z,30.20
2018-12-16T18:36:16.045Z,30.07
2018-12-16T18:38:52.216Z,25.73
2018-12-16T18:41:24.173Z,26.57
2018-12-16T18:44:00.056Z,24.80
2018-12-16T18:46:48.507Z,25.50
2018-12-16T18:49:30.589Z,26.47
2018-12-16T18:52:16.560Z,24.07
2018-12-16T18:54:58.572Z,24.47
2018-12-16T18:57:34.545Z,21.93
2018-12-16T19:00:11.376Z,27.37
2018-12-16T19:02:53.507Z,28.20
2018-12-16T19:05:29.521Z,27.13
2018-12-16T19:08:16.363Z,26.83
2018-12-16T19:16:02.992Z,21.90
2018-12-16T19:18:40.280Z,22.50
2018-12-16T19:21:18.444Z,24.43
2018-12-16T19:24:02.596Z,23.13
2018-12-16T19:26:42.397Z,23.50
2018-12-16T19:29:15.604Z,26.17
2018-12-16T19:31:51.800Z,24.03
2018-12-16T19:34:39.245Z,26.93
2018-12-16T19:37:21.319Z,24.87
2018-12-16T19:39:55.897Z,25.10
2018-12-16T19:42:41.592Z,25.13
2018-12-16T19:45:21.513Z,30.43
2018-12-16T19:48:03.733Z,27.30
2018-12-16T19:50:47.648Z,29.97
2018-12-16T19:53:23.392Z,26.63
2018-12-16T19:55:59.656Z,26.77
2018-12-16T19:58:32.813Z,24.50
2018-12-16T20:01:06.973Z,23.77
2018-12-16T20:04:17.571Z,24.27
2018-12-16T20:06:56.980Z,23.17
2018-12-16T20:09:34.001Z,27.03
2018-12-16T20:12:18.444Z,27.83
2018-12-16T20:17:33.287Z,34.10
2018-12-16T20:20:06.022Z,23.93
2018-12-16T20:22:40.273Z,27.80
2018-12-16T20:25:28.826Z,23.93
2018-12-16T20:31:00.885Z,25.60
2018-12-16T20:33:44.645Z,22.30
2018-12-16T20:36:18.844Z,21.87
2018-12-16T20:41:53.363Z,27.73
2018-12-16T20:44:35.796Z,21.90
2018-12-16T20:47:11.595Z,28.77
2018-12-16T20:49:51.460Z,23.67
2018-12-16T20:52:34.976Z,24.70
2018-12-16T20:55:11.964Z,24.13
2018-12-16T20:57:54.068Z,27.57
2018-12-16T21:00:36.309Z,24.57
2018-12-16T21:03:13.940Z,25.80
2018-12-16T21:05:54.048Z,22.20
2018-12-16T21:08:29.051Z,22.90
2018-12-16T21:11:09.838Z,21.03
2018-12-16T21:13:50.800Z,20.70
2018-12-16T21:16:40.225Z,21.93
2018-12-16T21:19:16.839Z,30.33
2018-12-16T21:22:01.119Z,26.10
2018-12-16T21:24:38.191Z,23.27
2018-12-16T21:27:12.008Z,23.60
2018-12-16T21:29:44.142Z,23.13
2018-12-16T21:32:20.250Z,23.77
2018-12-16T21:34:56.523Z,21.43
2018-12-16T21:37:28.410Z,28.80
2018-12-16T21:40:06.571Z,30.23
2018-12-16T21:45:44.513Z,26.93
2018-12-16T21:48:18.600Z,23.80
2018-12-16T21:51:00.293Z,21.07
2018-12-16T21:53:40.471Z,22.97
2018-12-16T21:56:28.372Z,25.93
2018-12-16T21:59:03.811Z,30.97
2018-12-16T22:01:42.140Z,40.47
2018-12-16T22:04:22.001Z,81.00
2018-12-16T22:06:58.084Z,38.23
2018-12-16T22:09:31.789Z,38.33
2018-12-16T22:12:04.962Z,34.53
2018-12-16T22:14:43.319Z,90.90
2018-12-16T22:17:19.404Z,42.70
2018-12-16T22:19:53.375Z,34.13
2018-12-16T22:22:28.927Z,63.27
2018-12-16T22:25:05.072Z,61.23
2018-12-16T22:27:43.371Z,43.10
2018-12-16T22:30:19.428Z,47.70
2018-12-16T22:32:55.633Z,34.33
2018-12-16T22:35:32.599Z,63.67
2018-12-16T22:38:08.576Z,39.53
2018-12-16T22:40:48.779Z,69.27
2018-12-16T22:43:25.168Z,99.37
2018-12-16T22:46:01.216Z,48.53
2018-12-16T22:48:33.067Z,36.13
2018-12-16T22:51:08.635Z,59.93
2018-12-16T22:53:44.484Z,34.07
2018-12-16T22:56:20.532Z,78.43
2018-12-16T22:59:00.684Z,35.97
2018-12-16T23:01:36.769Z,59.47
2018-12-16T23:04:08.304Z,40.10
2018-12-16T23:06:43.755Z,33.43
2018-12-16T23:09:26.229Z,38.97
2018-12-16T23:12:00.437Z,36.83
2018-12-16T23:14:37.572Z,29.73
2018-12-16T23:17:15.116Z,30.33
2018-12-16T23:19:54.792Z,30.50
2018-12-16T23:22:38.872Z,30.00
2018-12-16T23:25:16.332Z,27.73
2018-12-16T23:28:02.371Z,27.97
2018-12-16T23:30:35.991Z,27.57
2018-12-16T23:33:12.612Z,28.30
2018-12-16T23:35:55.115Z,28.60
2018-12-16T23:38:31.322Z,28.63
2018-12-16T23:41:05.280Z,31.30
2018-12-16T23:43:36.604Z,34.27
2018-12-16T23:46:12.172Z,30.83
2018-12-16T23:48:45.476Z,31.63
2018-12-16T23:51:20.834Z,32.63
2018-12-16T23:53:57.032Z,29.23
2018-12-16T23:56:33.455Z,30.63
2018-12-16T23:59:09.468Z,33.50
